Time;durP1;ratioP1;P1;durP2;ratioP2;P2;SDS_P1;SDS_P2;PMS_P1;PMS_P2;Temp;Humidity;BMP_temperature;BMP_pressure;BME280_temperature;BME280_humidity;BME280_pressure;Samples;Min_cycle;Max_cycle;Signal;HPM_P1;HPM_P2
2022/01/14 00:00:14;;;;;;;9.27;4.40;;;;;;;-0.06;100.00;97466.50;5065367;28;20146;-62
2022/01/14 00:03:17;;;;;;;9.25;4.97;;;;;;;-0.17;100.00;97451.91;5072750;27;20047;-63
2022/01/14 00:06:03;;;;;;;8.50;4.10;;;;;;;-0.24;100.00;97430.31;5093553;28;20419;-63
2022/01/14 00:08:49;;;;;;;10.05;4.38;;;;;;;-0.12;100.00;97432.72;5073750;28;20558;-64
2022/01/14 00:11:37;;;;;;;8.05;4.32;;;;;;;-0.09;100.00;97430.09;5069750;28;20046;-62
2022/01/14 00:14:37;;;;;;;10.00;4.18;;;;;;;-0.05;100.00;97428.28;5087599;27;20049;-64
2022/01/14 00:17:22;;;;;;;7.68;4.22;;;;;;;-0.03;100.00;97435.16;5064244;28;20174;-66
2022/01/14 00:20:07;;;;;;;7.68;4.22;;;;;;;0.13;100.00;97422.78;5095763;28;20131;-63
2022/01/14 00:22:52;;;;;;;6.97;3.90;;;;;;;0.14;100.00;97411.47;5108571;27;20046;-65
2022/01/14 00:31:45;;;;;;;6.93;3.63;;;;;;;0.19;100.00;97390.56;5055817;28;20050;-63
2022/01/14 00:34:30;;;;;;;7.22;3.22;;;;;;;0.38;100.00;97381.50;5070282;28;20412;-63
2022/01/14 00:37:17;;;;;;;6.03;2.92;;;;;;;0.44;100.00;97371.84;5077103;28;20214;-63
2022/01/14 00:40:03;;;;;;;7.72;3.08;;;;;;;0.39;100.00;97354.59;5087611;28;20053;-62
2022/01/14 00:42:49;;;;;;;7.13;3.40;;;;;;;0.42;100.00;97347.56;5069697;28;20059;-64
2022/01/14 00:45:35;;;;;;;5.18;2.85;;;;;;;0.29;100.00;97350.41;5064794;28;20055;-63
2022/01/14 00:48:20;;;;;;;6.15;2.80;;;;;;;0.36;100.00;97345.09;5098128;28;20540;-62
2022/01/14 00:51:05;;;;;;;5.88;2.92;;;;;;;0.41;100.00;97335.41;5090313;28;20047;-63
2022/01/14 00:53:50;;;;;;;6.00;2.90;;;;;;;0.36;100.00;97323.38;5105449;28;20047;-63
2022/01/14 00:59:26;;;;;;;5.20;3.13;;;;;;;0.63;100.00;97299.38;5084068;28;20097;-62
2022/01/14 01:02:11;;;;;;;7.15;3.40;;;;;;;0.61;100.00;97298.53;5083765;28;20118;-62
2022/01/14 01:04:56;;;;;;;5.88;2.90;;;;;;;0.60;100.00;97291.59;5070566;28;20044;-61
2022/01/14 01:07:44;;;;;;;6.25;2.97;;;;;;;0.60;100.00;97291.59;5096248;28;20062;-64
2022/01/14 01:10:29;;;;;;;4.18;2.50;;;;;;;0.70;100.00;97283.56;5093341;28;20087;-65
2022/01/14 01:13:30;;;;;;;6.38;2.72;;;;;;;0.76;100.00;97282.56;5068932;28;20483;-62
2022/01/14 01:16:14;;;;;;;7.43;3.45;;;;;;;0.82;100.00;97270.25;5069071;28;20113;-61
2022/01/14 01:18:59;;;;;;;7.38;3.53;;;;;;;0.84;100.00;97265.88;5092877;28;20055;-60
2022/01/14 01:21:44;;;;;;;7.55;4.13;;;;;;;0.87;100.00;97254.50;5085377;28;20125;-61
2022/01/14 01:24:28;;;;;;;8.73;3.78;;;;;;;0.86;100.00;97232.78;5107769;27;20564;-62
2022/01/14 01:27:15;;;;;;;8.05;3.88;;;;;;;0.99;100.00;97223.78;5088272;28;20626;-63
2022/01/14 01:30:13;;;;;;;9.93;4.30;;;;;;;0.95;100.00;97203.03;5086630;28;20151;-63
2022/01/14 01:32:59;;;;;;;6.93;3.63;;;;;;;0.95;100.00;97214.31;5093601;28;20042;-62
2022/01/14 01:35:46;;;;;;;8.52;3.78;;;;;;;1.03;100.00;97201.94;5081720;28;20051;-62
2022/01/14 01:38:31;;;;;;;7.78;4.47;;;;;;;1.06;100.00;97188.00;5077102;27;20254;-64
2022/01/14 01:41:17;;;;;;;8.73;4.43;;;;;;;1.07;100.00;97190.53;5099730;28;20039;-61
2022/01/14 01:44:06;;;;;;;11.60;4.90;;;;;;;1.22;100.00;97207.59;5056198;28;20051;-63
2022/01/14 01:46:53;;;;;;;9.80;4.35;;;;;;;1.30;100.00;97211.72;5099750;27;20135;-64
2022/01/14 01:49:39;;;;;;;10.20;4.43;;;;;;;1.34;100.00;97181.22;5089604;28;20832;-61
2022/01/14 01:52:24;;;;;;;13.60;5.53;;;;;;;1.41;100.00;97190.56;5078461;28;20531;-60
2022/01/14 01:55:11;;;;;;;12.90;5.28;;;;;;;1.47;100.00;97180.84;5082289;28;20093;-63
2022/01/14 01:57:55;;;;;;;12.30;4.68;;;;;;;1.52;100.00;97167.66;5076336;28;20050;-64
2022/01/14 02:00:40;;;;;;;10.75;4.43;;;;;;;1.50;100.00;97169.47;5073850;28;20093;-61
2022/01/14 02:03:26;;;;;;;7.55;4.15;;;;;;;1.64;100.00;97134.25;5074937;28;20288;-65
2022/01/14 02:06:10;;;;;;;9.88;3.60;;;;;;;1.58;100.00;97125.75;5079908;28;20059;-65
2022/01/14 02:08:55;;;;;;;6.22;3.28;;;;;;;1.59;100.00;97119.63;5088969;27;20046;-63
2022/01/14 02:11:40;;;;;;;6.03;3.35;;;;;;;1.61;100.00;97154.34;5095344;28;20056;-62
2022/01/14 02:14:53;;;;;;;7.60;3.20;;;;;;;1.59;100.00;97167.47;5078395;28;20466;-64
2022/01/14 02:17:35;;;;;;;10.60;3.75;;;;;;;1.68;100.00;97142.88;5085709;28;20552;-67
2022/01/14 02:23:24;;;;;;;11.35;4.60;;;;;;;1.83;100.00;97113.72;5104566;27;20756;-64
2022/01/14 02:26:10;;;;;;;10.43;4.90;;;;;;;1.82;100.00;97106.78;5084433;28;20587;-65
2022/01/14 02:28:55;;;;;;;10.55;5.57;;;;;;;1.84;100.00;97091.91;5082015;28;20104;-64
2022/01/14 02:31:39;;;;;;;20.73;7.03;;;;;;;1.93;100.00;97087.28;5079132;28;20546;-61
2022/01/14 02:34:24;;;;;;;16.98;5.47;;;;;;;1.96;100.00;97074.16;5066096;28;20055;-61
2022/01/14 02:37:09;;;;;;;11.43;5.63;;;;;;;1.99;100.00;97068.84;5083090;27;20572;-63
2022/01/14 02:39:55;;;;;;;10.55;4.78;;;;;;;2.09;100.00;97054.56;5086839;28;20054;-63
2022/01/14 02:42:41;;;;;;;12.05;4.07;;;;;;;2.08;100.00;97050.25;5097396;28;20107;-63
2022/01/14 02:45:32;;;;;;;10.82;3.83;;;;;;;2.13;100.00;97060.59;5098890;28;20192;-65
2022/01/14 02:48:25;;;;;;;9.77;2.90;;;;;;;2.24;100.00;97042.78;5105651;28;20086;-63
2022/01/14 02:51:13;;;;;;;7.72;2.65;;;;;;;2.24;100.00;97045.41;5067678;28;20051;-62
2022/01/14 02:54:11;;;;;;;5.55;2.33;;;;;;;2.27;100.00;97034.88;5116033;27;20065;-64
2022/01/14 02:57:00;;;;;;;5.57;1.50;;;;;;;2.27;100.00;97034.88;5077029;28;20051;-62
2022/01/14 02:59:47;;;;;;;3.80;1.52;;;;;;;2.27;100.00;97013.97;5067835;28;20066;-61
2022/01/14 03:02:34;;;;;;;2.50;1.08;;;;;;;2.30;100.00;97011.25;5085338;28;20101;-63
2022/01/14 03:05:21;;;;;;;2.42;1.23;;;;;;;2.34;100.00;97005.03;5084797;28;20063;-64
2022/01/14 03:08:07;;;;;;;3.08;1.30;;;;;;;2.41;100.00;96991.69;5086431;27;20055;-64
2022/01/14 03:11:05;;;;;;;5.57;2.92;;;;;;;2.43;100.00;96974.22;5126129;27;20201;-63
2022/01/14 03:13:51;;;;;;;5.25;2.45;;;;;;;2.46;100.00;96965.41;5049024;28;20127;-63
2022/01/14 03:16:41;;;;;;;10.00;3.15;;;;;;;2.45;100.00;96975.00;5070339;28;20166;-70
2022/01/14 03:19:28;;;;;;;6.93;2.80;;;;;;;2.44;100.00;96964.59;5080647;28;20042;-63
2022/01/14 03:28:10;;;;;;;2.85;1.48;;;;;;;2.56;100.00;96957.22;5089912;28;20571;-64
2022/01/14 03:30:55;;;;;;;2.78;1.17;;;;;;;2.57;100.00;96939.78;5089315;28;20050;-63
2022/01/14 03:33:41;;;;;;;2.15;1.17;;;;;;;2.53;100.00;96923.31;5104576;28;20149;-66
2022/01/14 03:36:26;;;;;;;1.88;0.77;;;;;;;2.67;100.00;96912.38;5082727;28;20081;-62
2022/01/14 03:39:11;;;;;;;1.98;0.60;;;;;;;2.72;100.00;96913.06;5086301;28;20376;-65
2022/01/14 03:41:56;;;;;;;2.42;0.93;;;;;;;2.79;100.00;96897.13;5087053;28;20044;-63
2022/01/14 03:44:41;;;;;;;5.22;0.70;;;;;;;2.87;100.00;96892.47;5075544;28;20105;-63
2022/01/14 03:47:25;;;;;;;1.08;0.65;;;;;;;2.88;100.00;96890.69;5095496;28;20211;-62
2022/01/14 03:50:11;;;;;;;6.10;2.85;;;;;;;2.88;100.00;96878.47;5075625;28;20054;-64
2022/01/14 03:52:56;;;;;;;2.75;1.42;;;;;;;2.91;100.00;96883.63;5078216;27;20103;-62
2022/01/14 03:55:44;;;;;;;5.18;1.60;;;;;;;2.90;100.00;96881.91;5101207;27;20047;-67
2022/01/14 03:58:28;;;;;;;4.93;1.88;;;;;;;2.88;100.00;96877.63;5073050;28;20050;-61
2022/01/14 04:01:13;;;;;;;2.47;0.98;;;;;;;2.94;100.00;96873.03;5084893;28;20097;-64
2022/01/14 04:04:00;;;;;;;3.25;0.85;;;;;;;2.90;100.00;96863.59;5087565;28;20124;-62
2022/01/14 04:06:44;;;;;;;2.05;0.80;;;;;;;3.00;100.00;96864.09;5082403;28;20050;-63
2022/01/14 04:09:29;;;;;;;1.40;0.73;;;;;;;3.05;100.00;96852.53;5096622;27;20123;-62
2022/01/14 04:12:19;;;;;;;2.20;0.70;;;;;;;3.01;100.00;96850.97;5086896;28;20383;-64
2022/01/14 04:18:13;;;;;;;3.60;1.88;;;;;;;3.01;100.00;96837.03;5070430;28;20043;-62
2022/01/14 04:20:57;;;;;;;4.95;1.70;;;;;;;2.99;100.00;96834.47;5091051;28;20053;-62
2022/01/14 04:23:43;;;;;;;2.85;1.15;;;;;;;2.99;100.00;96812.69;5112743;27;20471;-63
2022/01/14 04:26:27;;;;;;;1.67;1.00;;;;;;;2.97;100.00;96820.56;5116675;27;20486;-63
2022/01/14 04:29:12;;;;;;;5.32;1.80;;;;;;;2.96;100.00;96810.16;5089946;28;20054;-63
2022/01/14 04:32:00;;;;;;;2.80;1.20;;;;;;;2.93;100.00;96798.06;5093396;27;20252;-66
2022/01/14 04:34:45;;;;;;;2.25;1.15;;;;;;;2.91;100.00;96794.66;5098272;27;20099;-70
2022/01/14 04:37:29;;;;;;;2.22;1.10;;;;;;;2.95;100.00;96777.94;5094320;28;20088;-62
2022/01/14 04:40:15;;;;;;;2.53;1.40;;;;;;;2.95;100.00;96803.25;5102259;28;20191;-62
2022/01/14 04:43:01;;;;;;;3.90;1.38;;;;;;;2.88;100.00;96789.53;5089731;28;20055;-62
2022/01/14 04:48:43;;;;;;;2.40;1.58;;;;;;;2.84;100.00;96767.03;5083214;28;20157;-68
2022/01/14 04:51:28;;;;;;;3.90;1.85;;;;;;;2.86;100.00;96774.81;5084126;28;20055;-63
2022/01/14 04:54:14;;;;;;;5.20;2.07;;;;;;;2.89;100.00;96754.59;5117873;28;20042;-65
2022/01/14 04:56:58;;;;;;;;;;;;;;;2.94;100.00;96738.75;5093135;28;20381;-62
2022/01/14 04:59:46;;;;;;;3.95;1.83;;;;;;;2.90;100.00;96750.25;5095053;28;19941;-67
2022/01/14 05:02:30;;;;;;;4.75;2.25;;;;;;;2.91;100.00;96754.56;5089072;28;20058;-62
2022/01/14 05:05:17;;;;;;;;;;;;;;;2.92;100.00;96748.41;5099642;28;20103;-63
2022/01/14 05:08:09;;;;;;;4.75;1.92;;;;;;;2.88;100.00;96738.97;5097587;27;19934;-63
2022/01/14 05:13:40;;;;;;;3.05;1.42;;;;;;;2.93;100.00;96719.56;5078992;28;20109;-62
2022/01/14 05:16:25;;;;;;;;;;;;;;;2.97;100.00;96712.47;5092041;28;20518;-63
2022/01/14 05:19:10;;;;;;;3.92;1.58;;;;;;;2.94;100.00;96726.53;5090909;28;19985;-63
2022/01/14 05:21:54;;;;;;;3.83;1.50;;;;;;;2.98;100.00;96690.63;5088751;28;20100;-64
2022/01/14 05:24:41;;;;;;;3.05;1.50;;;;;;;2.95;100.00;96694.22;5116556;27;20559;-63
2022/01/14 05:27:26;;;;;;;3.90;2.20;;;;;;;3.05;100.00;96692.91;5093734;28;20112;-63
2022/01/14 05:30:14;;;;;;;5.70;2.70;;;;;;;3.01;100.00;96686.09;5098913;28;20054;-62
2022/01/14 05:32:59;;;;;;;4.63;2.10;;;;;;;3.05;100.00;96682.47;5083578;28;20398;-62
2022/01/14 05:35:44;;;;;;;4.10;1.70;;;;;;;2.98;100.00;96654.00;5104365;27;20142;-62
2022/01/14 05:38:29;;;;;;;4.10;1.67;;;;;;;3.04;100.00;96666.81;5102196;27;20137;-63
2022/01/14 05:41:18;;;;;;;6.88;1.90;;;;;;;3.06;100.00;96671.09;5100868;27;20411;-63
2022/01/14 05:44:05;;;;;;;3.08;1.40;;;;;;;3.14;100.00;96655.94;5096915;28;20047;-63
2022/01/14 05:46:51;;;;;;;3.30;1.50;;;;;;;3.18;100.00;96649.66;5085026;28;20384;-64
2022/01/14 05:49:37;;;;;;;3.58;1.20;;;;;;;3.12;100.00;96649.03;5104747;28;20100;-63
2022/01/14 05:52:21;;;;;;;;;;;;;;;3.14;100.00;96645.47;5072996;28;20116;-63
2022/01/14 05:55:10;;;;;;;3.67;1.38;;;;;;;3.11;100.00;96648.22;5106318;27;19926;-63
2022/01/14 05:57:55;;;;;;;4.30;1.20;;;;;;;3.11;100.00;96629.88;5069499;28;20415;-63
2022/01/14 06:00:40;;;;;;;5.22;1.45;;;;;;;3.09;100.00;96642.16;5102020;28;20079;-63
2022/01/14 06:03:25;;;;;;;3.28;1.55;;;;;;;3.12;100.00;96630.72;5071407;28;20093;-64
2022/01/14 06:06:09;;;;;;;5.60;1.50;;;;;;;3.10;100.00;96635.19;5091549;28;20116;-62
2022/01/14 06:08:54;;;;;;;3.95;1.33;;;;;;;3.11;100.00;96637.75;5081974;28;20334;-63
2022/01/14 06:11:39;;;;;;;4.07;1.73;;;;;;;3.10;100.00;96624.72;5073279;28;20521;-57
2022/01/14 06:14:24;;;;;;;2.45;1.40;;;;;;;3.07;100.00;96596.03;5101519;28;20054;-61
2022/01/14 06:17:08;;;;;;;3.05;1.75;;;;;;;3.10;100.00;96585.47;5093534;28;20188;-63
2022/01/14 06:19:53;;;;;;;3.75;1.40;;;;;;;3.11;100.00;96584.53;5107204;28;20096;-61
2022/01/14 06:22:38;;;;;;;3.85;2.15;;;;;;;3.14;100.00;96579.19;5100765;27;20063;-64
2022/01/14 06:25:23;;;;;;;3.55;1.80;;;;;;;3.12;100.00;96584.47;5104388;27;20042;-63
2022/01/14 06:28:08;;;;;;;6.20;2.28;;;;;;;3.08;100.00;96551.50;5076330;28;20093;-66
2022/01/14 06:30:53;;;;;;;;;;;;;;;3.12;100.00;96554.81;5087962;28;20800;-64
2022/01/14 06:33:37;;;;;;;5.53;2.50;;;;;;;3.12;100.00;96541.75;5082478;28;19926;-61
2022/01/14 06:36:22;;;;;;;4.68;2.15;;;;;;;3.13;100.00;96549.53;5087374;28;20522;-65
2022/01/14 06:39:06;;;;;;;5.13;2.43;;;;;;;3.16;100.00;96538.09;5079072;27;20042;-62
2022/01/14 06:41:51;;;;;;;7.80;2.78;;;;;;;3.12;100.00;96529.53;5089782;28;20340;-63
2022/01/14 06:44:35;;;;;;;5.70;2.88;;;;;;;3.07;100.00;96525.41;5075810;28;20419;-64
2022/01/14 06:47:23;;;;;;;9.02;3.25;;;;;;;3.07;100.00;96525.41;5056704;28;20075;-65
2022/01/14 06:50:09;;;;;;;11.55;4.03;;;;;;;3.17;100.00;96509.22;5087464;28;20184;-65
2022/01/14 06:52:54;;;;;;;7.50;4.03;;;;;;;3.17;100.00;96490.91;5090331;27;20074;-63
2022/01/14 06:55:38;;;;;;;7.32;4.10;;;;;;;3.11;100.00;96482.47;5087939;27;20047;-63
2022/01/14 06:58:23;;;;;;;8.13;4.40;;;;;;;3.15;100.00;96478.81;5087243;28;20050;-62
2022/01/14 07:01:10;;;;;;;7.97;4.13;;;;;;;3.15;100.00;96492.75;5073617;28;20083;-64
2022/01/14 07:03:55;;;;;;;8.32;4.35;;;;;;;3.20;100.00;96469.00;5093202;28;20077;-65
2022/01/14 07:06:40;;;;;;;11.40;3.78;;;;;;;3.12;100.00;96474.56;5095427;28;20059;-65
2022/01/14 07:09:25;;;;;;;;;;;;;;;3.15;100.00;96463.97;5075987;28;20099;-65
2022/01/14 07:12:11;;;;;;;8.40;2.90;;;;;;;3.14;100.00;96458.81;5082761;28;19927;-71
2022/01/14 07:14:57;;;;;;;8.43;2.90;;;;;;;3.14;100.00;96449.19;5064017;28;20191;-64
2022/01/14 07:17:43;;;;;;;8.18;3.67;;;;;;;3.16;100.00;96483.13;5082575;27;20084;-64
2022/01/14 07:20:27;;;;;;;5.05;2.50;;;;;;;3.21;100.00;96455.84;5080473;28;20082;-63
2022/01/14 07:23:12;;;;;;;4.20;2.42;;;;;;;3.23;100.00;96450.53;5088340;28;20642;-66
2022/01/14 07:25:57;;;;;;;6.43;2.65;;;;;;;3.23;100.00;96461.00;5077616;28;20043;-67
2022/01/14 07:28:42;;;;;;;5.93;1.98;;;;;;;3.22;100.00;96436.63;5089708;27;20055;-64
2022/01/14 07:31:30;;;;;;;2.85;1.35;;;;;;;3.24;100.00;96444.41;5069453;28;20536;-66
2022/01/14 07:34:16;;;;;;;3.80;1.65;;;;;;;3.24;100.00;96423.47;5070718;28;20047;-62
2022/01/14 07:37:03;;;;;;;3.25;1.42;;;;;;;3.21;100.00;96416.56;5078933;28;20049;-65
2022/01/14 07:39:48;;;;;;;3.20;1.20;;;;;;;3.31;100.00;96411.78;5076476;28;20568;-62
2022/01/14 07:42:33;;;;;;;;;;;;;;;3.39;100.00;96414.91;5098331;28;20149;-67
2022/01/14 07:45:19;;;;;;;5.20;2.25;;;;;;;3.37;100.00;96393.19;5072625;28;19934;-62
2022/01/14 07:48:05;;;;;;;6.00;2.72;;;;;;;3.44;100.00;96373.69;5087763;28;20059;-65
2022/01/14 07:50:51;;;;;;;3.50;1.77;;;;;;;3.45;100.00;96391.06;5087592;28;20089;-67
2022/01/14 07:53:36;;;;;;;2.08;1.08;;;;;;;3.55;100.00;96374.00;5093603;27;20046;-67
2022/01/14 07:56:21;;;;;;;4.93;1.88;;;;;;;3.52;100.00;96377.63;5069279;28;20074;-62
2022/01/14 07:59:06;;;;;;;3.97;1.25;;;;;;;3.64;100.00;96378.84;5073478;28;20051;-61
2022/01/14 08:01:55;;;;;;;1.30;0.70;;;;;;;3.73;100.00;96373.16;5079303;28;22018;-62
2022/01/14 08:04:41;;;;;;;3.63;0.77;;;;;;;3.73;100.00;96368.75;5077396;28;20570;-52
2022/01/14 08:07:28;;;;;;;1.27;0.80;;;;;;;3.79;100.00;96357.13;5072322;28;20595;-62
2022/01/14 08:10:14;;;;;;;2.25;0.90;;;;;;;3.79;100.00;96355.38;5077559;28;20105;-60
2022/01/14 08:12:59;;;;;;;2.85;1.20;;;;;;;3.90;100.00;96362.72;5089276;28;20415;-58
2022/01/14 08:15:43;;;;;;;3.08;0.80;;;;;;;3.87;100.00;96327.03;5077991;28;20114;-62
2022/01/14 08:18:28;;;;;;;0.65;0.55;;;;;;;3.90;100.00;96334.75;5076700;28;20181;-65
2022/01/14 08:21:15;;;;;;;1.30;0.70;;;;;;;3.88;100.00;96333.97;5094438;28;20070;-61
2022/01/14 08:24:04;;;;;;;2.30;0.70;;;;;;;3.89;100.00;96299.00;5086186;28;20128;-61
2022/01/14 08:26:49;;;;;;;1.67;0.55;;;;;;;3.89;100.00;96287.66;5085227;28;20079;-60
2022/01/14 08:29:34;;;;;;;1.85;0.93;;;;;;;3.93;100.00;96321.50;5088594;28;20075;-63
2022/01/14 08:32:21;;;;;;;1.60;0.50;;;;;;;4.02;100.00;96310.56;5078683;28;20043;-61
2022/01/14 08:35:07;;;;;;;1.20;0.52;;;;;;;4.08;100.00;96307.63;5078206;28;20109;-62
2022/01/14 08:37:53;;;;;;;1.35;0.60;;;;;;;4.08;100.00;96297.13;5090056;28;20047;-64
2022/01/14 08:40:39;;;;;;;1.50;0.70;;;;;;;4.10;100.00;96274.34;5079720;28;20058;-64
2022/01/14 08:43:24;;;;;;;2.22;0.60;;;;;;;4.15;100.00;96256.59;5087785;28;20499;-66
2022/01/14 08:46:09;;;;;;;2.35;0.90;;;;;;;4.06;100.00;96254.47;5088728;28;20091;-72
2022/01/14 08:48:56;;;;;;;1.42;0.77;;;;;;;3.98;100.00;96243.50;5076927;28;20527;-68
2022/01/14 08:51:41;;;;;;;2.05;0.80;;;;;;;4.01;100.00;96240.75;5075482;28;20113;-64
2022/01/14 08:54:27;;;;;;;0.88;0.75;;;;;;;4.06;100.00;96225.63;5089603;28;20051;-56
2022/01/14 08:57:13;;;;;;;1.60;0.60;;;;;;;4.10;100.00;96236.78;5079606;28;20174;-64
2022/01/14 08:59:58;;;;;;;1.77;0.60;;;;;;;4.04;100.00;96216.97;5076406;28;20055;-58
2022/01/14 09:02:43;;;;;;;1.80;0.73;;;;;;;4.11;100.00;96239.34;5078539;28;20046;-61
2022/01/14 09:05:28;;;;;;;2.95;1.35;;;;;;;4.07;100.00;96214.22;5076920;28;20042;-56
2022/01/14 09:08:13;;;;;;;5.03;0.80;;;;;;;4.09;100.00;96216.75;5093800;28;20063;-74
2022/01/14 09:10:57;;;;;;;1.25;0.80;;;;;;;4.11;100.00;96209.66;5097791;28;20050;-62
2022/01/14 09:13:42;;;;;;;2.88;0.82;;;;;;;4.00;100.00;96186.63;5072961;28;20101;-70
2022/01/14 09:16:28;;;;;;;3.72;1.30;;;;;;;4.00;100.00;96209.38;5081785;28;20082;-55
2022/01/14 09:19:13;;;;;;;1.10;0.55;;;;;;;4.08;100.00;96189.69;5089786;28;20046;-67
2022/01/14 09:21:58;;;;;;;2.08;0.70;;;;;;;4.07;100.00;96192.38;5090886;28;20047;-59
2022/01/14 09:24:45;;;;;;;1.10;0.90;;;;;;;4.10;100.00;96187.84;5089159;28;20591;-61
2022/01/14 09:27:30;;;;;;;2.60;0.93;;;;;;;4.12;100.00;96174.69;5067612;28;20063;-60
2022/01/14 09:30:15;;;;;;;1.90;0.68;;;;;;;4.17;100.00;96162.16;5078641;28;20047;-62
2022/01/14 09:32:59;;;;;;;0.73;0.50;;;;;;;4.12;100.00;96154.53;5095910;28;20070;-57
2022/01/14 09:35:46;;;;;;;0.93;0.50;;;;;;;4.21;100.00;96140.97;5088866;28;20519;-59
2022/01/14 09:38:32;;;;;;;1.05;0.50;;;;;;;4.20;100.00;96138.41;5087867;28;20054;-58
2022/01/14 09:41:21;;;;;;;2.10;0.55;;;;;;;4.22;100.00;96136.56;5085496;28;20086;-56
2022/01/14 09:44:07;;;;;;;2.47;0.93;;;;;;;4.18;100.00;96133.25;5066381;28;20054;-65
2022/01/14 09:46:52;;;;;;;1.63;0.82;;;;;;;4.14;100.00;96109.91;5081772;28;20063;-55
2022/01/14 09:49:38;;;;;;;4.05;1.95;;;;;;;4.10;100.00;96104.00;5090495;28;20055;-68
2022/01/14 09:52:23;;;;;;;4.47;1.85;;;;;;;4.19;100.00;96107.88;5071678;28;20091;-57
2022/01/14 09:55:08;;;;;;;3.42;1.38;;;;;;;4.21;100.00;96104.28;5101730;27;20054;-68
2022/01/14 09:57:54;;;;;;;3.83;1.40;;;;;;;4.13;100.00;96087.25;5073934;28;20047;-64
2022/01/14 10:00:39;;;;;;;2.33;1.20;;;;;;;4.18;100.00;96095.69;5075307;28;20450;-64
2022/01/14 10:03:25;;;;;;;3.58;0.95;;;;;;;4.17;100.00;96084.41;5102360;28;20043;-67
2022/01/14 10:06:10;;;;;;;3.70;1.00;;;;;;;4.11;100.00;96065.50;5075470;28;20051;-63
2022/01/14 10:09:04;;;;;;;1.98;0.82;;;;;;;4.13;100.00;96063.66;5095047;27;20073;-58
2022/01/14 10:12:05;;;;;;;2.90;0.80;;;;;;;4.20;100.00;96070.28;5112046;27;20464;-59
2022/01/14 10:14:58;;;;;;;3.40;0.90;;;;;;;4.13;100.00;96056.66;5080913;28;20151;-66
2022/01/14 10:17:46;;;;;;;3.38;0.93;;;;;;;4.15;100.00;96051.31;5080390;28;20067;-60
2022/01/14 10:20:41;;;;;;;2.17;1.13;;;;;;;4.27;100.00;96043.63;5097936;28;20051;-67
2022/01/14 10:23:59;;;;;;;2.15;0.80;;;;;;;4.26;100.00;96039.31;5073057;27;20473;-67
2022/01/14 10:26:56;;;;;;;3.03;0.70;;;;;;;4.22;100.00;96011.59;5034843;28;20183;-61
2022/01/14 10:29:44;;;;;;;4.75;0.80;;;;;;;4.26;100.00;96028.84;5025178;28;20056;-61
2022/01/14 10:32:31;;;;;;;2.33;0.70;;;;;;;4.30;100.00;96005.91;5029057;28;20146;-65
2022/01/14 10:35:20;;;;;;;3.83;1.55;;;;;;;4.22;100.00;96005.50;5023504;28;20052;-67
2022/01/14 10:38:36;;;;;;;3.63;1.15;;;;;;;4.23;100.00;96012.41;5017299;28;20083;-63
2022/01/14 10:41:29;;;;;;;4.57;1.70;;;;;;;4.22;100.00;95995.84;5016803;28;20072;-61
2022/01/14 10:44:27;;;;;;;2.35;0.95;;;;;;;4.34;100.00;96007.44;5034946;28;20075;-61
2022/01/14 10:47:14;;;;;;;2.05;0.93;;;;;;;4.24;100.00;95995.78;5034217;28;20059;-69
2022/01/14 10:49:59;;;;;;;2.17;0.90;;;;;;;4.16;100.00;95985.69;5035570;28;20056;-61
2022/01/14 10:52:50;;;;;;;2.10;0.93;;;;;;;4.20;100.00;95987.22;5033340;28;20047;-68
2022/01/14 10:55:42;;;;;;;2.17;0.77;;;;;;;4.19;100.00;95979.44;5006310;28;20103;-67
2022/01/14 10:58:33;;;;;;;2.25;0.80;;;;;;;4.15;100.00;95973.53;5063668;28;20066;-67
2022/01/14 11:01:22;;;;;;;5.82;2.00;;;;;;;4.03;100.00;95978.59;5095305;28;20486;-66
2022/01/14 11:04:14;;;;;;;2.88;0.90;;;;;;;4.03;100.00;95974.22;5079590;28;20096;-75
2022/01/14 11:07:01;;;;;;;3.78;1.52;;;;;;;4.07;100.00;95964.38;5095720;27;20447;-63
2022/01/14 11:09:46;;;;;;;6.35;2.83;;;;;;;4.07;100.00;95952.16;5100219;27;20051;-62
2022/01/14 11:12:32;;;;;;;3.38;1.90;;;;;;;4.05;100.00;95948.78;5078612;28;20123;-64
2022/01/14 11:15:18;;;;;;;1.23;0.60;;;;;;;3.98;100.00;95938.69;5094283;28;20420;-68
2022/01/14 11:18:07;;;;;;;2.10;0.80;;;;;;;4.05;100.00;95953.16;5079818;28;20131;-69
2022/01/14 11:23:59;;;;;;;4.35;0.65;;;;;;;4.02;100.00;95948.09;5083380;27;20514;-64
2022/01/14 11:26:46;;;;;;;1.00;0.43;;;;;;;3.95;100.00;95931.00;5061827;28;20093;-68
2022/01/14 11:29:40;;;;;;;2.35;0.50;;;;;;;3.79;100.00;95931.00;5100051;28;20051;-64
2022/01/14 11:32:25;;;;;;;3.92;0.50;;;;;;;3.82;100.00;95916.91;5096516;28;20067;-62
2022/01/14 11:35:23;;;;;;;2.67;0.60;;;;;;;3.99;100.00;95914.19;5078677;28;20058;-65
2022/01/14 11:38:34;;;;;;;3.75;0.90;;;;;;;3.94;100.00;95919.69;5078494;28;20526;-65
2022/01/14 11:42:14;;;;;;;1.70;0.50;;;;;;;3.98;100.00;95918.59;5078538;28;20109;-64
2022/01/14 11:45:01;;;;;;;1.52;0.60;;;;;;;3.77;100.00;95913.69;5020466;28;20064;-59
2022/01/14 11:47:59;;;;;;;2.13;0.75;;;;;;;3.92;100.00;95911.06;5005854;28;20060;-61
2022/01/14 11:50:46;;;;;;;1.67;0.75;;;;;;;3.99;100.00;95896.69;5008257;28;20072;-62
2022/01/14 11:53:49;;;;;;;3.45;0.63;;;;;;;4.09;100.00;95911.00;5005353;28;20631;-59
2022/01/14 11:56:35;;;;;;;4.65;1.10;;;;;;;3.97;100.00;95906.44;5019156;28;20058;-63
2022/01/14 11:59:23;;;;;;;2.97;1.00;;;;;;;3.96;100.00;95904.72;4996656;28;20130;-64
2022/01/14 12:02:32;;;;;;;2.15;0.70;;;;;;;3.99;100.00;95893.22;5006090;28;20067;-65
2022/01/14 12:05:23;;;;;;;2.63;0.70;;;;;;;3.91;100.00;95892.81;5019824;28;20099;-67
2022/01/14 12:08:12;;;;;;;1.52;0.82;;;;;;;3.86;100.00;95892.22;5002461;28;20106;-65
2022/01/14 12:11:07;;;;;;;1.38;0.52;;;;;;;3.93;100.00;95877.88;5018961;28;20052;-66
2022/01/14 12:14:04;;;;;;;2.70;0.65;;;;;;;3.84;100.00;95878.38;5018986;28;20119;-63
2022/01/14 12:17:10;;;;;;;3.63;0.80;;;;;;;3.88;100.00;95872.03;4994017;28;20085;-63
2022/01/14 12:19:56;;;;;;;1.80;0.88;;;;;;;3.83;100.00;95855.72;5032310;28;20388;-64
2022/01/14 12:23:09;;;;;;;3.00;0.90;;;;;;;4.00;100.00;95860.88;5078623;28;20605;-66
2022/01/14 12:25:54;;;;;;;2.45;0.90;;;;;;;3.91;100.00;95861.38;5082541;28;20085;-67
2022/01/14 12:28:40;;;;;;;2.28;0.80;;;;;;;3.78;100.00;95847.28;5079637;28;20054;-62
2022/01/14 12:31:25;;;;;;;1.48;0.47;;;;;;;3.71;100.00;95857.25;5093122;28;20523;-65
2022/01/14 12:34:09;;;;;;;2.20;0.73;;;;;;;3.67;100.00;95847.88;5073104;28;20074;-66
2022/01/14 12:36:55;;;;;;;2.00;0.68;;;;;;;3.73;100.00;95854.56;5083037;28;20581;-65
2022/01/14 12:39:40;;;;;;;1.17;0.57;;;;;;;3.57;100.00;95838.00;5098174;28;20062;-63
2022/01/14 12:42:25;;;;;;;2.28;0.70;;;;;;;3.41;100.00;95834.53;5087016;28;20128;-67
2022/01/14 12:45:37;;;;;;;3.35;0.80;;;;;;;3.46;100.00;95851.69;5091405;28;20097;-64
2022/01/14 12:48:46;;;;;;;1.48;0.70;;;;;;;3.50;100.00;95831.41;5067595;28;20577;-63
2022/01/14 12:51:32;;;;;;;4.82;0.60;;;;;;;3.34;100.00;95833.19;5079591;28;20128;-64
2022/01/14 12:54:18;;;;;;;2.53;0.95;;;;;;;3.21;100.00;95814.66;5076299;28;20047;-60
2022/01/14 12:57:04;;;;;;;3.92;0.85;;;;;;;3.19;100.00;95820.91;5078309;28;20138;-62
2022/01/14 12:59:52;;;;;;;3.05;0.80;;;;;;;3.18;100.00;95825.31;5100067;28;20050;-64
2022/01/14 13:02:36;;;;;;;3.15;1.10;;;;;;;3.11;100.00;95823.97;5082184;28;20046;-64
2022/01/14 13:05:21;;;;;;;2.13;0.90;;;;;;;3.10;100.00;95821.41;5089067;28;20050;-63
2022/01/14 13:08:07;;;;;;;2.45;0.60;;;;;;;3.06;100.00;95826.00;5068979;28;20047;-67
2022/01/14 13:11:01;;;;;;;;;;;;;;;3.06;100.00;95818.13;5090802;28;20047;-59
2022/01/14 13:14:02;;;;;;;3.42;0.90;;;;;;;3.15;100.00;95843.81;5064754;28;19922;-66
2022/01/14 13:16:53;;;;;;;4.25;1.00;;;;;;;3.20;100.00;95840.91;5093424;28;20092;-67
2022/01/14 13:19:40;;;;;;;3.55;1.10;;;;;;;3.22;100.00;95833.84;5069291;28;20063;-65
2022/01/14 13:22:31;;;;;;;2.72;0.90;;;;;;;3.28;100.00;95838.75;5077214;28;20177;-64
2022/01/14 13:25:18;;;;;;;4.95;1.23;;;;;;;3.23;100.00;95833.75;5111180;27;20074;-60
2022/01/14 13:28:04;;;;;;;2.17;1.05;;;;;;;3.17;100.00;95822.78;5097663;28;20071;-60
2022/01/14 13:30:49;;;;;;;4.43;1.13;;;;;;;3.11;100.00;95828.34;5106793;28;20123;-67
2022/01/14 13:33:34;;;;;;;4.68;1.10;;;;;;;3.09;100.00;95832.81;5094329;27;20083;-65
2022/01/14 13:36:19;;;;;;;4.72;0.77;;;;;;;2.94;100.00;95800.47;5074714;28;20046;-65
2022/01/14 13:39:09;;;;;;;4.95;1.17;;;;;;;3.02;100.00;95837.53;5078232;27;20071;-64